Alanya, Turkey
Current Conditions -  °F | °C
As of 3:10 AM on Thursday 23 Oct 2014 (Local Time) from LTAI Reporting Station
Rain Showers Rain Showers  
Wind Chill: 19°   Ceiling: 3000
Heat Index: 19°   Visibility: 6mi
Dew Point: 17°   Wind: 6mph
Humidity: 88%   Direction: 70°ENE
Pressure: 29.91"   Gusts: NA
Location:  36.56°N, 32°E
Report Text: LTAI 230010Z 07005KT 050V110 9999 -SHRA BKN030 19/17 Q1013 BECMG16012KT RMK RWY18C 08007KT RWY36R 07007KT RWY18L 08006KT
Loading
Personal Weather Stations






























Interactive Weather Map
Tropical Storm Tracking
New forecast layout! Learn more

10-Day Weather Forecast

Advertisements
Track Severe Weather on mobile